Time;durP1;ratioP1;P1;durP2;ratioP2;P2;SDS_P1;SDS_P2;PMS_P1;PMS_P2;Temp;Humidity;BMP_temperature;BMP_pressure;BME280_temperature;BME280_humidity;BME280_pressure;Samples;Min_cycle;Max_cycle;Signal;HPM_P1;HPM_P2
2023/03/09 00:02:09;;;;;;;11.07;7.40;;;0.70;99.90;;;;;;5010259;28;20270;-83
2023/03/09 00:04:36;;;;;;;12.87;8.27;;;0.70;99.90;;;;;;5011763;28;20179;-82
2023/03/09 00:07:02;;;;;;;11.63;6.97;;;0.70;99.90;;;;;;5012421;28;20210;-83
2023/03/09 00:09:27;;;;;;;9.83;6.83;;;0.70;99.90;;;;;;5012424;28;20224;-82
2023/03/09 00:11:53;;;;;;;11.93;8.13;;;0.70;99.90;;;;;;5012321;28;20266;-82
2023/03/09 00:14:21;;;;;;;12.90;7.73;;;0.70;99.90;;;;;;5012391;28;20342;-82
2023/03/09 00:16:47;;;;;;;11.27;7.13;;;0.60;99.90;;;;;;5011799;28;20175;-81
2023/03/09 00:19:20;;;;;;;12.07;8.03;;;0.60;99.90;;;;;;5011430;28;20522;-82
2023/03/09 00:21:50;;;;;;;10.80;7.67;;;0.60;99.90;;;;;;5028092;28;20179;-82
2023/03/09 00:24:18;;;;;;;12.80;8.63;;;0.60;99.90;;;;;;5012210;28;20268;-81
2023/03/09 00:26:49;;;;;;;12.47;8.07;;;0.60;99.90;;;;;;5011600;28;20325;-81
2023/03/09 00:29:15;;;;;;;13.03;8.13;;;0.60;99.90;;;;;;5013368;28;20171;-81
2023/03/09 00:31:42;;;;;;;12.90;8.00;;;0.60;99.90;;;;;;5011791;28;20179;-82
2023/03/09 00:34:07;;;;;;;12.27;8.07;;;0.60;99.90;;;;;;5011985;28;20268;-82
2023/03/09 00:36:33;;;;;;;11.70;7.23;;;0.60;99.90;;;;;;5013420;28;20267;-82
2023/03/09 00:38:59;;;;;;;12.10;7.40;;;0.60;99.90;;;;;;5011874;28;20660;-81
2023/03/09 00:41:28;;;;;;;9.87;7.17;;;0.60;99.90;;;;;;5011618;28;20176;-82
2023/03/09 00:43:53;;;;;;;11.77;7.40;;;0.60;99.90;;;;;;5013145;28;20607;-82
2023/03/09 00:46:19;;;;;;;11.63;7.27;;;0.50;99.90;;;;;;5011811;28;20217;-82
2023/03/09 00:48:45;;;;;;;12.67;8.07;;;0.50;99.90;;;;;;5016378;28;20179;-82
2023/03/09 00:51:12;;;;;;;11.47;7.80;;;0.50;99.90;;;;;;5015392;28;20279;-83
2023/03/09 00:53:38;;;;;;;13.23;7.90;;;0.50;99.90;;;;;;5015380;28;20174;-81
2023/03/09 00:56:08;;;;;;;12.63;8.10;;;0.50;99.90;;;;;;5016466;28;20175;-82
2023/03/09 00:58:34;;;;;;;10.90;7.73;;;0.50;99.90;;;;;;5016325;28;20252;-82
2023/03/09 01:01:00;;;;;;;11.67;8.07;;;0.50;99.90;;;;;;5015172;28;20262;-82
2023/03/09 01:03:26;;;;;;;14.87;8.13;;;0.50;99.90;;;;;;5016485;28;20229;-82
2023/03/09 01:05:52;;;;;;;12.27;8.07;;;0.50;99.90;;;;;;5015289;28;20618;-82
2023/03/09 01:08:19;;;;;;;12.67;7.80;;;0.50;99.90;;;;;;5015190;28;20202;-82
2023/03/09 01:10:45;;;;;;;14.00;8.80;;;0.50;99.90;;;;;;5015892;28;20254;-82
2023/03/09 01:13:10;;;;;;;10.47;7.30;;;0.50;99.90;;;;;;5015120;28;20258;-82
2023/03/09 01:15:37;;;;;;;12.47;7.77;;;0.50;99.90;;;;;;5014360;28;20179;-82
2023/03/09 01:18:03;;;;;;;12.50;8.60;;;0.50;99.90;;;;;;5016303;28;20250;-82
2023/03/09 01:20:28;;;;;;;13.50;8.30;;;0.50;99.90;;;;;;5031257;28;20262;-82
2023/03/09 01:22:54;;;;;;;11.43;8.10;;;0.50;99.90;;;;;;5031374;28;20183;-82
2023/03/09 01:25:20;;;;;;;14.97;8.83;;;0.40;99.90;;;;;;5015543;28;20259;-81
2023/03/09 01:27:45;;;;;;;14.50;9.00;;;0.40;99.90;;;;;;5031287;28;20694;-81
2023/03/09 01:30:11;;;;;;;14.37;9.40;;;0.50;99.90;;;;;;5015813;28;20622;-82
2023/03/09 01:32:37;;;;;;;16.47;10.00;;;0.40;99.90;;;;;;5031202;28;20214;-82
2023/03/09 01:35:04;;;;;;;14.93;9.77;;;0.40;99.90;;;;;;5016021;28;20206;-82
2023/03/09 01:37:30;;;;;;;14.17;9.57;;;0.40;99.90;;;;;;5031068;28;20179;-82
2023/03/09 01:39:55;;;;;;;14.07;9.43;;;0.40;99.90;;;;;;5030986;28;20214;-82
2023/03/09 01:42:21;;;;;;;14.80;9.70;;;0.40;99.90;;;;;;5030695;28;20179;-81
2023/03/09 01:45:19;;;;;;;15.27;10.30;;;0.40;99.90;;;;;;5031013;28;20582;-82
2023/03/09 01:47:48;;;;;;;15.47;9.70;;;0.40;99.90;;;;;;5031034;28;20203;-84
2023/03/09 01:50:15;;;;;;;17.90;10.63;;;0.40;99.90;;;;;;5030690;28;20179;-82
2023/03/09 01:52:44;;;;;;;17.43;10.87;;;0.40;99.90;;;;;;5015608;28;20174;-82
2023/03/09 01:55:12;;;;;;;18.93;11.37;;;0.40;99.90;;;;;;5014349;28;20225;-82
2023/03/09 01:57:51;;;;;;;18.33;10.67;;;0.40;99.90;;;;;;5013567;28;20183;-82
2023/03/09 02:00:20;;;;;;;17.30;11.23;;;0.40;99.90;;;;;;5013124;28;20208;-82
2023/03/09 02:02:51;;;;;;;18.80;11.57;;;0.40;99.90;;;;;;5014176;28;20218;-82
2023/03/09 02:05:29;;;;;;;22.30;12.90;;;0.40;99.90;;;;;;5014176;28;20182;-82
2023/03/09 02:07:57;;;;;;;21.83;12.90;;;0.40;99.90;;;;;;5015401;28;20171;-82
2023/03/09 02:10:45;;;;;;;20.63;12.13;;;0.40;99.90;;;;;;5013608;28;20227;-83
2023/03/09 02:13:15;;;;;;;20.07;12.87;;;0.40;99.90;;;;;;5013833;28;20171;-82
2023/03/09 02:15:41;;;;;;;20.50;12.00;;;0.40;99.90;;;;;;5013848;28;20274;-82
2023/03/09 02:18:08;;;;;;;21.50;12.57;;;0.40;99.90;;;;;;5015096;28;20614;-82
2023/03/09 02:21:06;;;;;;;20.50;12.17;;;0.40;99.90;;;;;;5030112;28;20682;-82
2023/03/09 02:23:54;;;;;;;22.93;12.73;;;0.40;99.90;;;;;;5014999;28;20618;-83
2023/03/09 02:26:58;;;;;;;21.87;13.43;;;0.40;99.90;;;;;;5014409;28;20681;-82
2023/03/09 02:29:24;;;;;;;22.70;13.17;;;0.40;99.90;;;;;;4957375;28;20172;-83
2023/03/09 02:31:50;;;;;;;24.93;13.70;;;0.40;99.90;;;;;;4973680;28;20169;-82
2023/03/09 02:34:16;;;;;;;28.63;14.57;;;0.40;99.90;;;;;;4998472;28;20199;-82
2023/03/09 02:36:41;;;;;;;23.67;13.63;;;0.40;99.90;;;;;;5013543;28;20563;-82
2023/03/09 02:39:34;;;;;;;23.97;14.40;;;0.40;99.90;;;;;;5013437;28;20608;-83
2023/03/09 02:42:02;;;;;;;25.63;14.27;;;0.40;99.90;;;;;;5014436;28;20191;-82
2023/03/09 02:47:01;;;;;;;25.93;14.50;;;0.40;99.90;;;;;;5008998;28;20245;-81
2023/03/09 02:49:26;;;;;;;28.80;15.50;;;0.40;99.90;;;;;;5029899;28;20168;-83
2023/03/09 02:51:52;;;;;;;23.87;14.53;;;0.40;99.90;;;;;;5029604;28;20190;-82
2023/03/09 02:54:17;;;;;;;27.47;15.87;;;0.40;99.90;;;;;;5029774;28;20183;-82
2023/03/09 02:56:43;;;;;;;24.87;15.03;;;0.40;99.90;;;;;;5029715;28;20183;-82
2023/03/09 02:59:09;;;;;;;23.20;14.00;;;0.40;99.90;;;;;;5029090;28;20540;-82
2023/03/09 03:01:34;;;;;;;27.60;14.90;;;0.40;99.90;;;;;;5012839;28;20286;-82
2023/03/09 03:04:00;;;;;;;24.10;13.87;;;0.50;99.90;;;;;;5028843;28;20611;-82
2023/03/09 03:06:26;;;;;;;24.93;15.27;;;0.50;99.90;;;;;;5014219;28;20207;-81
2023/03/09 03:08:51;;;;;;;26.97;15.10;;;0.50;99.90;;;;;;5014396;28;20659;-82
2023/03/09 03:11:17;;;;;;;23.17;13.67;;;0.40;99.90;;;;;;5029066;28;20179;-83
2023/03/09 03:13:43;;;;;;;21.57;12.80;;;0.40;99.90;;;;;;5012823;28;20245;-82
2023/03/09 03:16:08;;;;;;;26.33;13.90;;;0.40;99.90;;;;;;5013305;28;20175;-82
2023/03/09 03:18:34;;;;;;;21.33;12.37;;;0.50;99.90;;;;;;5029413;28;20225;-83
2023/03/09 03:21:00;;;;;;;22.30;13.23;;;0.50;99.90;;;;;;5028457;28;20226;-82
2023/03/09 03:23:25;;;;;;;20.70;12.83;;;0.50;99.90;;;;;;5012826;28;20252;-82
2023/03/09 03:25:51;;;;;;;24.27;13.47;;;0.40;99.90;;;;;;5012626;28;20210;-81
2023/03/09 03:28:17;;;;;;;16.87;10.37;;;0.40;99.90;;;;;;5012777;28;20187;-81
2023/03/09 03:30:48;;;;;;;19.87;11.87;;;0.50;99.90;;;;;;5012261;28;20559;-82
2023/03/09 03:33:14;;;;;;;20.93;12.13;;;0.40;99.90;;;;;;5012703;28;20173;-82
2023/03/09 03:35:40;;;;;;;18.80;12.20;;;0.40;99.90;;;;;;5012665;28;20573;-81
2023/03/09 03:38:06;;;;;;;19.17;11.37;;;0.50;99.90;;;;;;5029078;28;20629;-80
2023/03/09 03:40:32;;;;;;;21.20;12.90;;;0.50;99.90;;;;;;5012383;28;20290;-81
2023/03/09 03:42:57;;;;;;;19.17;11.23;;;0.50;99.90;;;;;;5012399;28;20183;-82
2023/03/09 03:45:23;;;;;;;18.77;10.93;;;0.40;99.90;;;;;;5011656;28;20315;-82
2023/03/09 03:47:49;;;;;;;21.73;12.40;;;0.50;99.90;;;;;;5011008;28;20197;-82
2023/03/09 03:50:14;;;;;;;19.10;11.37;;;0.40;99.90;;;;;;5018515;28;20186;-82
2023/03/09 03:52:40;;;;;;;20.63;12.23;;;0.40;99.90;;;;;;5013618;28;20264;-82
2023/03/09 03:55:06;;;;;;;18.63;11.40;;;0.50;99.90;;;;;;5012335;28;20645;-82
2023/03/09 03:57:32;;;;;;;17.83;11.87;;;0.40;99.90;;;;;;5012017;28;20618;-82
2023/03/09 03:59:57;;;;;;;19.47;11.50;;;0.50;99.90;;;;;;5009038;28;20187;-81
2023/03/09 04:02:23;;;;;;;18.30;11.53;;;0.50;99.90;;;;;;5016571;28;20187;-83
2023/03/09 04:04:49;;;;;;;20.00;12.07;;;0.50;99.90;;;;;;5026952;28;20688;-83
2023/03/09 04:07:15;;;;;;;17.37;10.70;;;0.50;99.90;;;;;;5011990;28;20207;-82
2023/03/09 04:09:41;;;;;;;17.87;10.80;;;0.50;99.90;;;;;;5011952;28;20216;-82
2023/03/09 04:12:07;;;;;;;16.73;10.93;;;0.50;99.90;;;;;;5028542;28;20187;-82
2023/03/09 04:14:33;;;;;;;18.93;10.87;;;0.50;99.90;;;;;;5028537;28;20179;-82
2023/03/09 04:16:58;;;;;;;16.17;10.40;;;0.50;99.90;;;;;;5028367;28;20207;-81
2023/03/09 04:19:24;;;;;;;18.47;11.33;;;0.50;99.90;;;;;;5028568;28;20282;-82
2023/03/09 04:21:50;;;;;;;17.43;10.63;;;0.50;99.90;;;;;;5012294;28;20625;-82
2023/03/09 04:24:15;;;;;;;16.70;10.90;;;0.40;99.90;;;;;;5015986;28;20571;-82
2023/03/09 04:26:41;;;;;;;16.57;10.83;;;0.40;99.90;;;;;;5017156;28;20301;-82
2023/03/09 04:29:07;;;;;;;17.30;11.27;;;0.50;99.90;;;;;;5032228;28;20172;-82
2023/03/09 04:31:32;;;;;;;17.70;11.27;;;0.50;99.90;;;;;;5015438;28;20254;-82
2023/03/09 04:33:58;;;;;;;19.03;11.53;;;0.50;99.90;;;;;;5014153;28;20175;-83
2023/03/09 04:36:23;;;;;;;18.07;11.43;;;0.50;99.90;;;;;;5012620;28;20636;-81
2023/03/09 04:38:49;;;;;;;19.97;12.30;;;0.40;99.90;;;;;;4997399;28;20234;-80
2023/03/09 04:41:15;;;;;;;17.83;11.53;;;0.50;99.90;;;;;;5012217;28;20183;-82
2023/03/09 04:43:40;;;;;;;16.73;10.67;;;0.40;99.90;;;;;;5008828;28;20187;-81
2023/03/09 04:46:06;;;;;;;16.80;11.07;;;0.40;99.90;;;;;;5015774;28;20274;-82
2023/03/09 04:48:32;;;;;;;18.57;11.03;;;0.40;99.90;;;;;;5016354;28;20317;-82
2023/03/09 04:50:57;;;;;;;18.00;11.50;;;0.40;99.90;;;;;;5031999;28;20625;-82
2023/03/09 04:53:23;;;;;;;16.53;11.13;;;0.40;99.90;;;;;;5031869;28;20321;-82
2023/03/09 04:55:48;;;;;;;16.63;10.47;;;0.50;99.90;;;;;;5015417;28;20175;-83
2023/03/09 04:58:14;;;;;;;18.43;12.03;;;0.50;99.90;;;;;;5016657;28;20182;-82
2023/03/09 05:00:40;;;;;;;18.30;10.53;;;0.50;99.90;;;;;;5031315;28;20174;-82
2023/03/09 05:03:05;;;;;;;17.93;10.07;;;0.40;99.90;;;;;;5016438;28;20610;-82
2023/03/09 05:05:31;;;;;;;16.60;10.10;;;0.50;99.90;;;;;;5015269;28;20179;-82
2023/03/09 05:07:58;;;;;;;15.80;10.20;;;0.40;99.90;;;;;;5015091;28;20278;-81
2023/03/09 05:10:23;;;;;;;17.80;11.00;;;0.50;99.90;;;;;;5031529;28;20262;-82
2023/03/09 05:12:49;;;;;;;16.97;10.77;;;0.50;99.90;;;;;;5015009;28;20302;-82
2023/03/09 05:15:14;;;;;;;14.97;10.20;;;0.50;99.90;;;;;;5031210;28;20187;-82
2023/03/09 05:17:40;;;;;;;17.77;10.37;;;0.50;99.90;;;;;;5014291;28;20657;-82
2023/03/09 05:20:09;;;;;;;14.63;9.70;;;0.50;99.90;;;;;;5030535;28;20211;-82
2023/03/09 05:22:36;;;;;;;15.97;10.30;;;0.50;99.90;;;;;;5015953;28;20602;-83
2023/03/09 05:25:01;;;;;;;16.60;9.27;;;0.50;99.90;;;;;;5016268;28;20178;-82
2023/03/09 05:27:27;;;;;;;12.33;8.87;;;0.50;99.90;;;;;;5014610;28;20726;-82
2023/03/09 05:29:53;;;;;;;14.53;9.47;;;0.50;99.90;;;;;;5015442;28;20169;-81
2023/03/09 05:32:18;;;;;;;14.13;9.23;;;0.50;99.90;;;;;;5014920;28;20179;-82
2023/03/09 05:34:45;;;;;;;16.87;10.23;;;0.50;99.90;;;;;;5015569;28;20180;-82
2023/03/09 05:37:11;;;;;;;15.20;9.23;;;0.50;99.90;;;;;;5015803;28;20179;-81
2023/03/09 05:39:37;;;;;;;15.50;9.77;;;0.50;99.90;;;;;;5030884;28;20176;-82
2023/03/09 05:42:03;;;;;;;14.77;9.87;;;0.50;99.90;;;;;;5014101;28;20176;-82
2023/03/09 05:44:28;;;;;;;17.47;10.53;;;0.50;99.90;;;;;;5013665;28;20181;-82
2023/03/09 05:46:54;;;;;;;14.37;9.93;;;0.50;99.90;;;;;;5014763;28;20234;-82
2023/03/09 05:49:20;;;;;;;15.77;9.70;;;0.50;99.90;;;;;;5015597;28;20616;-82
2023/03/09 05:51:45;;;;;;;15.93;9.73;;;0.50;99.90;;;;;;5014302;28;20638;-82
2023/03/09 05:54:11;;;;;;;15.13;9.80;;;0.50;99.90;;;;;;5015300;28;20175;-81
2023/03/09 05:56:37;;;;;;;17.43;10.60;;;0.50;99.90;;;;;;5013392;28;20187;-82
2023/03/09 05:59:02;;;;;;;14.97;9.60;;;0.50;99.90;;;;;;5014835;28;20167;-85
2023/03/09 06:01:29;;;;;;;18.07;10.73;;;0.50;99.90;;;;;;5015081;28;20172;-82
2023/03/09 06:03:55;;;;;;;17.77;10.47;;;0.50;99.90;;;;;;5015518;28;20199;-82
2023/03/09 06:06:21;;;;;;;15.73;10.00;;;0.50;99.90;;;;;;5015252;28;20657;-82
2023/03/09 06:08:48;;;;;;;16.80;10.37;;;0.50;99.90;;;;;;5029637;28;20186;-83
2023/03/09 06:11:13;;;;;;;15.90;10.53;;;0.50;99.90;;;;;;5013103;28;20178;-82
2023/03/09 06:13:39;;;;;;;17.93;11.27;;;0.50;99.90;;;;;;5013934;28;20179;-83
2023/03/09 06:16:07;;;;;;;17.27;10.37;;;0.50;99.90;;;;;;5015030;28;20179;-82
2023/03/09 06:18:34;;;;;;;17.83;10.77;;;0.50;99.90;;;;;;5014003;28;20606;-82
2023/03/09 06:21:04;;;;;;;17.43;10.27;;;0.60;99.90;;;;;;5029265;28;20274;-81
2023/03/09 06:23:31;;;;;;;16.67;10.07;;;0.50;99.90;;;;;;5012939;28;20629;-82
2023/03/09 06:25:57;;;;;;;17.20;10.73;;;0.60;99.90;;;;;;5013598;28;20228;-83
2023/03/09 06:28:24;;;;;;;19.27;10.90;;;0.60;99.90;;;;;;5015180;28;20171;-82
2023/03/09 06:30:50;;;;;;;17.27;10.03;;;0.60;99.90;;;;;;5012867;28;20175;-82
2023/03/09 06:33:16;;;;;;;16.20;9.93;;;0.60;99.90;;;;;;5013090;28;20189;-82
2023/03/09 06:35:42;;;;;;;16.13;10.37;;;0.60;99.90;;;;;;5012333;28;20183;-81
2023/03/09 06:38:08;;;;;;;16.67;10.00;;;0.60;99.90;;;;;;5012955;28;20177;-82
2023/03/09 06:40:35;;;;;;;16.87;10.23;;;0.60;99.90;;;;;;5029173;28;20191;-83
2023/03/09 06:43:00;;;;;;;14.87;9.90;;;0.60;99.90;;;;;;5013172;28;20182;-83
2023/03/09 06:45:26;;;;;;;15.47;10.13;;;0.60;99.90;;;;;;5012523;28;20354;-82
2023/03/09 06:47:56;;;;;;;16.57;10.60;;;0.70;99.90;;;;;;5012761;28;20190;-82
2023/03/09 06:50:26;;;;;;;19.47;10.17;;;0.70;99.90;;;;;;5012759;28;20182;-83
2023/03/09 06:52:52;;;;;;;15.30;9.63;;;0.70;99.90;;;;;;5013112;28;20246;-83
2023/03/09 06:55:18;;;;;;;15.40;9.47;;;0.80;99.90;;;;;;5014655;28;20172;-83
2023/03/09 06:57:44;;;;;;;16.37;10.07;;;0.80;99.90;;;;;;5012077;28;20203;-83
2023/03/09 07:00:11;;;;;;;15.40;9.30;;;0.80;99.90;;;;;;5012019;28;20189;-84
2023/03/09 07:02:38;;;;;;;14.00;9.47;;;0.80;99.90;;;;;;5011557;28;20179;-83
2023/03/09 07:05:05;;;;;;;13.83;8.60;;;0.80;99.90;;;;;;5012892;28;20187;-83
2023/03/09 07:07:31;;;;;;;14.83;8.93;;;0.80;99.90;;;;;;5029512;28;20276;-83
2023/03/09 07:09:56;;;;;;;13.00;8.23;;;0.90;99.90;;;;;;5012935;28;20661;-83
2023/03/09 07:12:22;;;;;;;14.97;9.00;;;0.90;99.90;;;;;;5012341;28;20178;-83
2023/03/09 07:14:48;;;;;;;14.27;9.00;;;0.90;99.90;;;;;;5028777;28;20176;-83
2023/03/09 07:17:14;;;;;;;13.47;8.40;;;1.00;99.90;;;;;;5012213;28;20512;-83
2023/03/09 07:19:40;;;;;;;24.73;14.63;;;0.90;99.90;;;;;;5012321;28;20260;-82
2023/03/09 07:22:07;;;;;;;13.40;9.53;;;1.00;99.90;;;;;;5012947;28;20176;-83
2023/03/09 07:24:37;;;;;;;14.20;8.23;;;1.00;99.90;;;;;;5012082;28;20185;-82
2023/03/09 07:27:03;;;;;;;13.97;8.63;;;0.90;99.90;;;;;;5013186;28;20218;-84
2023/03/09 07:29:30;;;;;;;13.87;8.60;;;0.90;99.90;;;;;;5014016;28;20261;-83
2023/03/09 07:31:55;;;;;;;13.87;9.13;;;1.00;99.90;;;;;;5013904;28;20170;-83
2023/03/09 07:34:21;;;;;;;13.00;8.53;;;1.00;99.90;;;;;;5012516;28;20276;-82
2023/03/09 07:36:48;;;;;;;14.00;8.33;;;1.00;99.90;;;;;;5013343;28;20232;-83
2023/03/09 07:39:14;;;;;;;12.87;8.80;;;1.10;99.90;;;;;;5012228;28;20641;-82
2023/03/09 07:41:41;;;;;;;14.90;8.90;;;1.10;99.90;;;;;;5012432;28;20186;-82
2023/03/09 07:44:07;;;;;;;14.00;8.97;;;1.10;99.90;;;;;;5012566;28;20178;-83
2023/03/09 07:46:33;;;;;;;14.73;8.80;;;1.10;99.90;;;;;;5009307;28;20238;-81
2023/03/09 07:49:02;;;;;;;13.57;8.53;;;1.10;99.90;;;;;;5012301;28;20206;-82
2023/03/09 07:51:29;;;;;;;14.43;9.20;;;1.10;99.90;;;;;;5027752;28;20175;-82
2023/03/09 07:53:55;;;;;;;16.83;10.00;;;1.10;99.90;;;;;;5013385;28;20167;-82
2023/03/09 07:56:21;;;;;;;13.60;9.07;;;1.10;99.90;;;;;;5013401;28;20176;-82
2023/03/09 07:58:47;;;;;;;14.07;8.80;;;1.20;99.90;;;;;;5031531;28;20606;-82
2023/03/09 08:01:16;;;;;;;15.13;9.50;;;1.10;99.90;;;;;;5016913;28;20192;-81
2023/03/09 08:03:42;;;;;;;15.03;9.40;;;1.10;99.90;;;;;;5031069;28;20167;-82
2023/03/09 08:06:09;;;;;;;13.90;8.63;;;1.10;99.90;;;;;;5032134;28;20225;-83
2023/03/09 08:08:36;;;;;;;14.37;8.80;;;1.10;99.90;;;;;;5032747;28;20185;-83
2023/03/09 08:11:03;;;;;;;14.50;9.23;;;1.10;99.90;;;;;;5032329;28;20247;-83
2023/03/09 08:13:30;;;;;;;14.47;8.97;;;1.20;99.90;;;;;;5032285;28;20264;-83
2023/03/09 08:16:00;;;;;;;15.73;9.00;;;1.10;99.90;;;;;;5031463;28;20190;-82
2023/03/09 08:18:25;;;;;;;16.77;10.07;;;1.10;99.90;;;;;;5031378;28;20606;-83
2023/03/09 08:20:51;;;;;;;13.13;8.80;;;1.10;99.90;;;;;;5015723;28;20237;-82
2023/03/09 08:23:17;;;;;;;16.17;9.87;;;1.10;99.90;;;;;;5015717;28;20177;-82
2023/03/09 08:25:44;;;;;;;18.67;9.20;;;1.20;99.90;;;;;;5015680;28;20243;-82
2023/03/09 08:28:11;;;;;;;14.27;9.30;;;1.20;99.90;;;;;;5014790;28;20186;-82
2023/03/09 08:30:38;;;;;;;14.73;9.27;;;1.10;99.90;;;;;;5014639;28;20232;-82
2023/03/09 08:33:04;;;;;;;17.13;9.13;;;1.10;99.90;;;;;;5015602;28;20291;-82
2023/03/09 08:35:32;;;;;;;16.07;9.70;;;1.20;99.90;;;;;;5015285;28;20376;-82
2023/03/09 08:37:59;;;;;;;14.37;9.30;;;1.10;99.90;;;;;;5016988;28;20615;-82
2023/03/09 08:40:26;;;;;;;15.77;9.70;;;1.20;99.90;;;;;;5015049;28;20183;-82
2023/03/09 08:42:52;;;;;;;13.33;9.20;;;1.20;99.90;;;;;;5015432;28;20592;-82
2023/03/09 08:45:18;;;;;;;14.50;9.30;;;1.20;99.90;;;;;;5015136;28;20306;-82
2023/03/09 08:47:43;;;;;;;18.40;11.03;;;1.20;99.90;;;;;;5031971;28;20240;-82
2023/03/09 08:50:10;;;;;;;17.20;9.30;;;1.20;99.90;;;;;;5014464;28;20276;-83
2023/03/09 08:52:37;;;;;;;16.17;10.30;;;1.30;99.90;;;;;;5015779;28;20171;-82
2023/03/09 08:55:05;;;;;;;15.73;10.10;;;1.30;99.90;;;;;;5031704;28;20507;-82
2023/03/09 08:57:31;;;;;;;16.07;9.40;;;1.30;99.90;;;;;;5030193;28;20190;-82
2023/03/09 08:59:57;;;;;;;15.30;9.03;;;1.40;99.90;;;;;;5014915;28;20179;-81
2023/03/09 09:02:23;;;;;;;14.67;9.40;;;1.40;99.90;;;;;;5014117;28;20173;-82
2023/03/09 09:04:49;;;;;;;18.73;10.73;;;1.40;99.90;;;;;;5014232;28;20179;-82
2023/03/09 09:07:16;;;;;;;17.87;10.77;;;1.40;99.90;;;;;;5013964;28;20268;-82
2023/03/09 09:09:42;;;;;;;15.97;10.23;;;1.40;99.90;;;;;;5030728;28;20618;-81
2023/03/09 09:12:09;;;;;;;14.13;9.53;;;1.30;99.90;;;;;;5015662;28;20254;-82
2023/03/09 09:14:37;;;;;;;17.23;9.43;;;1.30;99.90;;;;;;5030582;28;20182;-81
2023/03/09 09:17:06;;;;;;;17.77;10.90;;;1.30;99.90;;;;;;5013680;28;20175;-82
2023/03/09 09:19:33;;;;;;;16.87;10.13;;;1.30;99.90;;;;;;5031297;28;20282;-82
2023/03/09 09:21:59;;;;;;;16.50;9.77;;;1.40;99.90;;;;;;5015693;28;20163;-82
2023/03/09 09:24:26;;;;;;;18.07;10.30;;;1.40;99.90;;;;;;5013938;28;20190;-82
2023/03/09 09:26:54;;;;;;;14.97;9.60;;;1.50;99.90;;;;;;5014834;28;20277;-81
2023/03/09 09:29:20;;;;;;;16.90;9.80;;;1.60;99.90;;;;;;5015239;28;20178;-81
2023/03/09 09:31:48;;;;;;;16.03;9.90;;;1.70;99.90;;;;;;5014366;28;20519;-82
2023/03/09 09:34:13;;;;;;;14.33;9.50;;;1.70;99.90;;;;;;5011643;28;20695;-82
2023/03/09 09:36:40;;;;;;;16.13;9.93;;;1.70;99.90;;;;;;5019624;28;20183;-82
2023/03/09 09:39:06;;;;;;;15.20;9.40;;;1.70;99.90;;;;;;5005979;28;20615;-82
2023/03/09 09:41:52;;;;;;;15.93;9.87;;;1.70;99.90;;;;;;5010288;28;20270;-82
2023/03/09 09:44:25;;;;;;;15.50;9.57;;;1.70;99.90;;;;;;5024052;28;20187;-82
2023/03/09 09:46:53;;;;;;;14.37;9.87;;;1.80;99.90;;;;;;5031063;28;20337;-83
2023/03/09 09:49:23;;;;;;;14.47;9.47;;;1.80;99.90;;;;;;5015683;28;21097;-82
2023/03/09 09:52:10;;;;;;;13.37;8.93;;;1.80;99.90;;;;;;5031225;28;20171;-82
2023/03/09 09:55:08;;;;;;;16.03;10.80;;;1.90;99.90;;;;;;5013538;28;20234;-83
2023/03/09 09:57:40;;;;;;;21.43;12.37;;;1.80;99.90;;;;;;5029341;28;20286;-82
2023/03/09 10:00:18;;;;;;;16.03;10.30;;;1.90;99.90;;;;;;5013980;28;20179;-82
2023/03/09 10:03:11;;;;;;;15.30;9.53;;;1.90;99.90;;;;;;5014443;28;20581;-83
2023/03/09 10:05:46;;;;;;;15.53;9.60;;;1.90;99.90;;;;;;5015582;28;20171;-83
2023/03/09 10:08:23;;;;;;;15.00;10.10;;;1.90;99.90;;;;;;5030447;28;20190;-82
2023/03/09 10:10:50;;;;;;;17.90;10.90;;;2.00;99.90;;;;;;5007301;28;20180;-83
2023/03/09 10:13:34;;;;;;;16.47;10.63;;;2.00;99.90;;;;;;5011147;28;20184;-82
2023/03/09 10:16:06;;;;;;;16.80;10.63;;;2.10;99.90;;;;;;4996214;28;20179;-83
2023/03/09 10:18:39;;;;;;;16.40;10.73;;;2.10;99.90;;;;;;5011258;28;20171;-83
2023/03/09 10:21:15;;;;;;;16.23;9.80;;;2.20;99.90;;;;;;5010571;28;20187;-84
2023/03/09 10:23:43;;;;;;;14.57;9.87;;;2.20;99.90;;;;;;4996463;28;20633;-84
2023/03/09 10:26:11;;;;;;;16.10;9.50;;;2.20;99.90;;;;;;5017765;28;20221;-83
2023/03/09 10:28:42;;;;;;;15.83;10.40;;;2.20;99.90;;;;;;5014910;28;20683;-84
2023/03/09 10:31:36;;;;;;;13.93;9.60;;;2.10;99.90;;;;;;5014590;28;20488;-83
2023/03/09 10:34:20;;;;;;;14.07;9.47;;;2.20;99.90;;;;;;5014620;28;20178;-84
2023/03/09 10:37:15;;;;;;;17.53;9.53;;;2.30;99.90;;;;;;5016217;28;20603;-83
2023/03/09 10:39:45;;;;;;;15.53;9.73;;;2.20;99.90;;;;;;5026836;28;20190;-83
2023/03/09 10:42:18;;;;;;;17.03;10.07;;;2.20;99.90;;;;;;5022649;28;20226;-84
2023/03/09 10:44:59;;;;;;;16.37;10.10;;;2.30;99.90;;;;;;5011260;28;20278;-84
2023/03/09 10:47:25;;;;;;;14.77;9.83;;;2.30;99.90;;;;;;5030477;28;20645;-84
2023/03/09 10:50:11;;;;;;;15.73;9.93;;;2.40;99.90;;;;;;5030414;28;20233;-84
2023/03/09 10:52:37;;;;;;;18.37;9.53;;;2.40;99.90;;;;;;5029996;28;20175;-84
2023/03/09 10:55:22;;;;;;;14.80;9.83;;;2.40;99.90;;;;;;5029506;28;20183;-85
2023/03/09 10:57:59;;;;;;;14.00;9.93;;;2.30;99.90;;;;;;4993686;28;20179;-84
2023/03/09 11:00:26;;;;;;;14.77;9.67;;;2.30;99.90;;;;;;4993910;28;20179;-84
2023/03/09 11:02:55;;;;;;;17.27;10.30;;;2.20;99.90;;;;;;4996430;28;20179;-84
2023/03/09 11:05:23;;;;;;;16.53;10.10;;;2.20;99.90;;;;;;5004665;28;20191;-84
2023/03/09 11:07:55;;;;;;;13.87;9.30;;;2.20;99.90;;;;;;5013311;28;20249;-84
2023/03/09 11:10:30;;;;;;;14.07;9.40;;;2.30;99.90;;;;;;5010654;28;20225;-83
2023/03/09 11:12:57;;;;;;;13.87;9.73;;;2.30;99.90;;;;;;5025662;28;20183;-84
2023/03/09 11:15:27;;;;;;;15.60;9.67;;;2.30;99.90;;;;;;5018618;28;20187;-83
2023/03/09 11:17:54;;;;;;;16.03;9.67;;;2.30;99.90;;;;;;5015467;28;20184;-83
2023/03/09 11:20:38;;;;;;;15.13;9.27;;;2.20;99.90;;;;;;5010100;28;20183;-83
2023/03/09 11:23:26;;;;;;;14.77;10.00;;;2.20;99.90;;;;;;5010248;28;20171;-84
2023/03/09 11:26:23;;;;;;;14.70;9.87;;;2.20;99.90;;;;;;5014636;28;20765;-83
2023/03/09 11:29:02;;;;;;;14.50;9.47;;;2.20;99.90;;;;;;5013261;28;20211;-82
2023/03/09 11:31:37;;;;;;;18.30;11.33;;;2.20;99.90;;;;;;5028507;28;20634;-83
2023/03/09 11:34:06;;;;;;;16.87;10.53;;;2.10;99.90;;;;;;4993923;28;20204;-84
2023/03/09 11:36:48;;;;;;;14.17;10.13;;;2.20;99.90;;;;;;5010295;28;20290;-84
2023/03/09 11:39:21;;;;;;;15.10;10.03;;;2.20;99.90;;;;;;5011419;28;20580;-83
2023/03/09 11:41:50;;;;;;;19.07;11.37;;;2.20;99.90;;;;;;5023881;28;20180;-83
2023/03/09 11:44:33;;;;;;;21.03;11.47;;;2.20;99.90;;;;;;5028929;28;20187;-83
2023/03/09 11:47:25;;;;;;;22.23;12.00;;;2.20;99.90;;;;;;5024639;28;20584;-83
2023/03/09 11:49:57;;;;;;;17.73;10.53;;;2.20;99.90;;;;;;5017112;28;20179;-83
2023/03/09 11:52:37;;;;;;;14.70;9.83;;;2.20;99.90;;;;;;5009631;28;20180;-82
2023/03/09 11:55:13;;;;;;;14.47;10.27;;;2.20;99.90;;;;;;5009619;28;20515;-83
2023/03/09 11:57:47;;;;;;;19.23;12.20;;;2.20;99.90;;;;;;5026474;28;20179;-83
2023/03/09 12:00:16;;;;;;;17.50;11.40;;;2.20;99.90;;;;;;5000706;28;20199;-83
2023/03/09 12:03:00;;;;;;;36.13;16.57;;;2.30;99.90;;;;;;5008921;28;20184;-83
2023/03/09 12:05:32;;;;;;;21.50;12.07;;;2.30;99.90;;;;;;5009533;28;20190;-82
2023/03/09 12:08:06;;;;;;;24.90;13.03;;;2.30;99.90;;;;;;5011053;28;20242;-80
2023/03/09 12:10:38;;;;;;;23.77;12.80;;;2.30;99.90;;;;;;5011496;28;20581;-83
2023/03/09 12:13:11;;;;;;;23.50;12.77;;;2.30;99.90;;;;;;5027148;28;20213;-81
2023/03/09 12:15:45;;;;;;;22.23;11.30;;;2.20;99.90;;;;;;5028908;28;20179;-82
2023/03/09 12:18:23;;;;;;;26.13;13.50;;;2.30;99.90;;;;;;5028865;28;20178;-82
2023/03/09 12:20:58;;;;;;;22.40;12.93;;;2.30;99.90;;;;;;5008080;28;20175;-81
2023/03/09 12:23:35;;;;;;;18.43;12.60;;;2.20;99.90;;;;;;4991997;28;20192;-82
2023/03/09 12:26:04;;;;;;;14.47;10.20;;;2.20;99.90;;;;;;5013483;28;20207;-81
2023/03/09 12:28:30;;;;;;;18.50;12.10;;;2.10;99.90;;;;;;5011794;28;20179;-82
2023/03/09 12:30:57;;;;;;;22.90;13.27;;;2.10;99.90;;;;;;5011859;28;20293;-82
2023/03/09 12:33:41;;;;;;;19.83;12.00;;;2.10;99.90;;;;;;5011549;28;20271;-81
2023/03/09 12:36:25;;;;;;;21.67;13.87;;;2.20;99.90;;;;;;5011518;28;20859;-81
2023/03/09 12:39:22;;;;;;;18.83;12.07;;;2.20;99.90;;;;;;5012051;28;20522;-83
2023/03/09 12:41:54;;;;;;;17.07;11.33;;;2.10;99.90;;;;;;5011919;28;20555;-82
2023/03/09 12:44:44;;;;;;;18.30;12.13;;;2.10;99.90;;;;;;5014108;28;20175;-82
2023/03/09 12:47:36;;;;;;;21.07;11.67;;;2.10;99.90;;;;;;5031339;28;20215;-82
2023/03/09 12:50:21;;;;;;;17.93;11.83;;;2.20;99.90;;;;;;5032289;28;20175;-83
2023/03/09 12:53:22;;;;;;;20.70;12.10;;;2.10;99.90;;;;;;5032138;28;20171;-82
2023/03/09 12:55:54;;;;;;;18.83;10.90;;;2.10;99.90;;;;;;5032216;28;20210;-82